sensor_id;sensor_type;location;lat;lon;timestamp;temperature;humidity
16513;DHT22;8369;48.030;11.598;2022-08-19T00:02:13;20.60;99.90
16513;DHT22;8369;48.030;11.598;2022-08-19T00:04:39;20.60;99.90
16513;DHT22;8369;48.030;11.598;2022-08-19T00:07:10;20.60;99.90
16513;DHT22;8369;48.030;11.598;2022-08-19T00:09:39;20.60;99.90
16513;DHT22;8369;48.030;11.598;2022-08-19T00:12:05;20.50;99.90
16513;DHT22;8369;48.030;11.598;2022-08-19T00:14:33;20.50;99.90
16513;DHT22;8369;48.030;11.598;2022-08-19T00:17:00;20.40;99.90
16513;DHT22;8369;48.030;11.598;2022-08-19T00:19:30;20.40;99.90
16513;DHT22;8369;48.030;11.598;2022-08-19T00:21:59;20.30;99.90
16513;DHT22;8369;48.030;11.598;2022-08-19T00:24:25;20.30;99.90
16513;DHT22;8369;48.030;11.598;2022-08-19T00:26:55;20.30;99.90
16513;DHT22;8369;48.030;11.598;2022-08-19T00:29:32;20.30;99.90
16513;DHT22;8369;48.030;11.598;2022-08-19T00:31:58;20.20;99.90
16513;DHT22;8369;48.030;11.598;2022-08-19T00:34:26;20.20;99.90
16513;DHT22;8369;48.030;11.598;2022-08-19T00:36:56;20.30;99.90
16513;DHT22;8369;48.030;11.598;2022-08-19T00:39:22;20.20;99.90
16513;DHT22;8369;48.030;11.598;2022-08-19T00:41:51;20.30;99.90
16513;DHT22;8369;48.030;11.598;2022-08-19T00:44:21;20.30;99.90
16513;DHT22;8369;48.030;11.598;2022-08-19T00:46:49;20.30;99.90
16513;DHT22;8369;48.030;11.598;2022-08-19T00:49:43;20.30;99.90
16513;DHT22;8369;48.030;11.598;2022-08-19T00:52:21;20.30;99.90
16513;DHT22;8369;48.030;11.598;2022-08-19T00:54:48;20.20;99.90
16513;DHT22;8369;48.030;11.598;2022-08-19T00:57:17;20.20;99.90
16513;DHT22;8369;48.030;11.598;2022-08-19T00:59:46;20.20;99.90
16513;DHT22;8369;48.030;11.598;2022-08-19T01:02:15;20.20;99.90
16513;DHT22;8369;48.030;11.598;2022-08-19T01:04:50;20.20;99.90
16513;DHT22;8369;48.030;11.598;2022-08-19T01:07:16;20.30;99.90
16513;DHT22;8369;48.030;11.598;2022-08-19T01:09:48;20.10;99.90
16513;DHT22;8369;48.030;11.598;2022-08-19T01:12:14;20.20;99.90
16513;DHT22;8369;48.030;11.598;2022-08-19T01:14:41;20.20;99.90
16513;DHT22;8369;48.030;11.598;2022-08-19T01:17:12;20.20;99.90
16513;DHT22;8369;48.030;11.598;2022-08-19T01:19:41;20.20;99.90
16513;DHT22;8369;48.030;11.598;2022-08-19T01:22:18;20.20;99.90
16513;DHT22;8369;48.030;11.598;2022-08-19T01:24:45;20.20;99.90
16513;DHT22;8369;48.030;11.598;2022-08-19T01:27:11;20.20;99.90
16513;DHT22;8369;48.030;11.598;2022-08-19T01:29:39;20.20;99.90
16513;DHT22;8369;48.030;11.598;2022-08-19T01:32:07;20.30;99.90
16513;DHT22;8369;48.030;11.598;2022-08-19T01:34:34;20.30;99.90
16513;DHT22;8369;48.030;11.598;2022-08-19T01:37:01;20.30;99.90
16513;DHT22;8369;48.030;11.598;2022-08-19T01:39:31;20.30;99.90
16513;DHT22;8369;48.030;11.598;2022-08-19T01:41:57;20.30;99.90
16513;DHT22;8369;48.030;11.598;2022-08-19T01:44:23;20.30;99.90
16513;DHT22;8369;48.030;11.598;2022-08-19T01:46:50;20.30;99.90
16513;DHT22;8369;48.030;11.598;2022-08-19T01:49:18;20.30;99.90
16513;DHT22;8369;48.030;11.598;2022-08-19T01:51:50;20.30;99.90
16513;DHT22;8369;48.030;11.598;2022-08-19T01:54:18;20.30;99.90
16513;DHT22;8369;48.030;11.598;2022-08-19T01:56:44;20.30;99.90
16513;DHT22;8369;48.030;11.598;2022-08-19T01:59:19;20.30;99.90
16513;DHT22;8369;48.030;11.598;2022-08-19T02:01:47;20.30;99.90
16513;DHT22;8369;48.030;11.598;2022-08-19T02:04:13;20.30;99.90
16513;DHT22;8369;48.030;11.598;2022-08-19T02:06:40;20.30;99.90
16513;DHT22;8369;48.030;11.598;2022-08-19T02:09:06;20.30;99.90
16513;DHT22;8369;48.030;11.598;2022-08-19T02:11:35;20.30;99.90
16513;DHT22;8369;48.030;11.598;2022-08-19T02:14:04;20.30;99.90
16513;DHT22;8369;48.030;11.598;2022-08-19T02:16:31;20.30;99.90
16513;DHT22;8369;48.030;11.598;2022-08-19T02:19:00;20.30;99.90
16513;DHT22;8369;48.030;11.598;2022-08-19T02:21:29;20.40;99.90
16513;DHT22;8369;48.030;11.598;2022-08-19T02:23:58;20.30;99.90
16513;DHT22;8369;48.030;11.598;2022-08-19T02:26:27;20.30;99.90
16513;DHT22;8369;48.030;11.598;2022-08-19T02:28:57;20.30;99.90
16513;DHT22;8369;48.030;11.598;2022-08-19T02:31:24;20.30;99.90
16513;DHT22;8369;48.030;11.598;2022-08-19T02:33:50;20.30;99.90
16513;DHT22;8369;48.030;11.598;2022-08-19T02:36:17;20.20;99.90
16513;DHT22;8369;48.030;11.598;2022-08-19T02:38:44;20.30;99.90
16513;DHT22;8369;48.030;11.598;2022-08-19T02:41:25;20.20;99.90
16513;DHT22;8369;48.030;11.598;2022-08-19T02:43:51;20.10;99.90
16513;DHT22;8369;48.030;11.598;2022-08-19T02:46:26;20.10;99.90
16513;DHT22;8369;48.030;11.598;2022-08-19T02:48:54;20.00;99.90
16513;DHT22;8369;48.030;11.598;2022-08-19T02:51:33;20.00;99.90
16513;DHT22;8369;48.030;11.598;2022-08-19T02:53:59;20.00;99.90
16513;DHT22;8369;48.030;11.598;2022-08-19T02:56:26;20.00;99.90
16513;DHT22;8369;48.030;11.598;2022-08-19T02:58:54;20.00;99.90
16513;DHT22;8369;48.030;11.598;2022-08-19T03:01:26;20.10;99.90
16513;DHT22;8369;48.030;11.598;2022-08-19T03:03:52;20.10;99.90
16513;DHT22;8369;48.030;11.598;2022-08-19T03:06:19;20.10;99.90
16513;DHT22;8369;48.030;11.598;2022-08-19T03:08:46;20.10;99.90
16513;DHT22;8369;48.030;11.598;2022-08-19T03:11:32;20.10;99.90
16513;DHT22;8369;48.030;11.598;2022-08-19T03:13:59;20.10;99.90
16513;DHT22;8369;48.030;11.598;2022-08-19T03:16:47;20.10;99.90
16513;DHT22;8369;48.030;11.598;2022-08-19T03:19:15;20.10;99.90
16513;DHT22;8369;48.030;11.598;2022-08-19T03:21:43;20.00;99.90
16513;DHT22;8369;48.030;11.598;2022-08-19T03:24:12;20.00;99.90
16513;DHT22;8369;48.030;11.598;2022-08-19T03:26:44;20.00;99.90
16513;DHT22;8369;48.030;11.598;2022-08-19T03:29:17;20.00;99.90
16513;DHT22;8369;48.030;11.598;2022-08-19T03:31:43;20.00;99.90
16513;DHT22;8369;48.030;11.598;2022-08-19T03:34:18;19.90;99.90
16513;DHT22;8369;48.030;11.598;2022-08-19T03:36:45;19.90;99.90
16513;DHT22;8369;48.030;11.598;2022-08-19T03:39:12;19.90;99.90
16513;DHT22;8369;48.030;11.598;2022-08-19T03:41:41;19.90;99.90
16513;DHT22;8369;48.030;11.598;2022-08-19T03:44:07;19.90;99.90
16513;DHT22;8369;48.030;11.598;2022-08-19T03:46:34;19.90;99.90
16513;DHT22;8369;48.030;11.598;2022-08-19T03:49:05;19.90;99.90
16513;DHT22;8369;48.030;11.598;2022-08-19T03:51:37;19.90;99.90
16513;DHT22;8369;48.030;11.598;2022-08-19T03:54:13;19.90;99.90
16513;DHT22;8369;48.030;11.598;2022-08-19T03:56:41;19.90;99.90
16513;DHT22;8369;48.030;11.598;2022-08-19T03:59:10;19.90;99.90
16513;DHT22;8369;48.030;11.598;2022-08-19T04:01:36;19.90;99.90
16513;DHT22;8369;48.030;11.598;2022-08-19T04:04:03;19.90;99.90
16513;DHT22;8369;48.030;11.598;2022-08-19T04:06:31;19.90;99.90
16513;DHT22;8369;48.030;11.598;2022-08-19T04:09:00;19.90;99.90
16513;DHT22;8369;48.030;11.598;2022-08-19T04:11:30;19.90;99.90
16513;DHT22;8369;48.030;11.598;2022-08-19T04:13:58;19.90;99.90
16513;DHT22;8369;48.030;11.598;2022-08-19T04:16:27;19.90;99.90
16513;DHT22;8369;48.030;11.598;2022-08-19T04:18:59;19.90;99.90
16513;DHT22;8369;48.030;11.598;2022-08-19T04:21:26;19.90;99.90
16513;DHT22;8369;48.030;11.598;2022-08-19T04:23:55;19.90;99.90
16513;DHT22;8369;48.030;11.598;2022-08-19T04:26:25;19.90;99.90
16513;DHT22;8369;48.030;11.598;2022-08-19T04:28:51;19.90;99.90
16513;DHT22;8369;48.030;11.598;2022-08-19T04:31:25;19.90;99.90
16513;DHT22;8369;48.030;11.598;2022-08-19T04:33:59;19.90;99.90
16513;DHT22;8369;48.030;11.598;2022-08-19T04:36:33;19.90;99.90
16513;DHT22;8369;48.030;11.598;2022-08-19T04:39:06;19.90;99.90
16513;DHT22;8369;48.030;11.598;2022-08-19T04:41:32;19.90;99.90
16513;DHT22;8369;48.030;11.598;2022-08-19T04:44:20;19.90;99.90
16513;DHT22;8369;48.030;11.598;2022-08-19T04:46:49;19.90;99.90
16513;DHT22;8369;48.030;11.598;2022-08-19T04:49:18;19.90;99.90
16513;DHT22;8369;48.030;11.598;2022-08-19T04:51:46;19.90;99.90
16513;DHT22;8369;48.030;11.598;2022-08-19T04:54:13;19.90;99.90
16513;DHT22;8369;48.030;11.598;2022-08-19T04:56:40;19.90;99.90
16513;DHT22;8369;48.030;11.598;2022-08-19T04:59:06;19.90;99.90
16513;DHT22;8369;48.030;11.598;2022-08-19T05:01:36;19.90;99.90
16513;DHT22;8369;48.030;11.598;2022-08-19T05:04:04;19.90;99.90
16513;DHT22;8369;48.030;11.598;2022-08-19T05:06:31;19.90;99.90
16513;DHT22;8369;48.030;11.598;2022-08-19T05:09:09;19.80;99.90
16513;DHT22;8369;48.030;11.598;2022-08-19T05:11:42;19.80;99.90
16513;DHT22;8369;48.030;11.598;2022-08-19T05:14:09;19.80;99.90
16513;DHT22;8369;48.030;11.598;2022-08-19T05:16:35;19.80;99.90
16513;DHT22;8369;48.030;11.598;2022-08-19T05:19:01;19.90;99.90
16513;DHT22;8369;48.030;11.598;2022-08-19T05:21:45;19.80;99.90
16513;DHT22;8369;48.030;11.598;2022-08-19T05:24:30;19.90;99.90
16513;DHT22;8369;48.030;11.598;2022-08-19T05:26:58;19.90;99.90
16513;DHT22;8369;48.030;11.598;2022-08-19T05:29:26;19.90;99.90
16513;DHT22;8369;48.030;11.598;2022-08-19T05:31:54;19.90;99.90
16513;DHT22;8369;48.030;11.598;2022-08-19T05:34:26;19.90;99.90
16513;DHT22;8369;48.030;11.598;2022-08-19T05:36:59;19.90;99.90
16513;DHT22;8369;48.030;11.598;2022-08-19T05:39:29;20.00;99.90
16513;DHT22;8369;48.030;11.598;2022-08-19T05:42:00;20.00;99.90
16513;DHT22;8369;48.030;11.598;2022-08-19T05:44:29;20.00;99.90
16513;DHT22;8369;48.030;11.598;2022-08-19T05:47:04;20.00;99.90
16513;DHT22;8369;48.030;11.598;2022-08-19T05:49:32;20.00;99.90
16513;DHT22;8369;48.030;11.598;2022-08-19T05:52:01;20.10;99.90
16513;DHT22;8369;48.030;11.598;2022-08-19T05:54:27;20.10;99.90
16513;DHT22;8369;48.030;11.598;2022-08-19T05:56:53;20.10;99.90
16513;DHT22;8369;48.030;11.598;2022-08-19T05:59:19;20.10;99.90
16513;DHT22;8369;48.030;11.598;2022-08-19T06:01:47;20.10;99.90
16513;DHT22;8369;48.030;11.598;2022-08-19T06:04:17;20.10;99.90
16513;DHT22;8369;48.030;11.598;2022-08-19T06:06:45;20.10;99.90
16513;DHT22;8369;48.030;11.598;2022-08-19T06:09:11;20.10;99.90
16513;DHT22;8369;48.030;11.598;2022-08-19T06:11:43;20.10;99.90
16513;DHT22;8369;48.030;11.598;2022-08-19T06:14:16;20.10;99.90
16513;DHT22;8369;48.030;11.598;2022-08-19T06:16:44;20.10;99.90
16513;DHT22;8369;48.030;11.598;2022-08-19T06:19:15;20.10;99.90
16513;DHT22;8369;48.030;11.598;2022-08-19T06:21:43;20.10;99.90
16513;DHT22;8369;48.030;11.598;2022-08-19T06:24:15;20.10;99.90
16513;DHT22;8369;48.030;11.598;2022-08-19T06:26:43;20.00;99.90
16513;DHT22;8369;48.030;11.598;2022-08-19T06:29:12;20.00;99.90
16513;DHT22;8369;48.030;11.598;2022-08-19T06:31:42;20.00;99.90
16513;DHT22;8369;48.030;11.598;2022-08-19T06:34:08;20.00;99.90
16513;DHT22;8369;48.030;11.598;2022-08-19T06:36:40;20.00;99.90
16513;DHT22;8369;48.030;11.598;2022-08-19T06:39:20;20.00;99.90
16513;DHT22;8369;48.030;11.598;2022-08-19T06:41:48;20.00;99.90
16513;DHT22;8369;48.030;11.598;2022-08-19T06:44:15;20.00;99.90
16513;DHT22;8369;48.030;11.598;2022-08-19T06:46:42;20.00;99.90
16513;DHT22;8369;48.030;11.598;2022-08-19T06:49:08;20.00;99.90
16513;DHT22;8369;48.030;11.598;2022-08-19T06:51:36;20.00;99.90
16513;DHT22;8369;48.030;11.598;2022-08-19T06:54:04;20.00;99.90
16513;DHT22;8369;48.030;11.598;2022-08-19T06:56:31;20.00;99.90
16513;DHT22;8369;48.030;11.598;2022-08-19T06:59:05;19.90;99.90
16513;DHT22;8369;48.030;11.598;2022-08-19T07:01:50;19.90;99.90
16513;DHT22;8369;48.030;11.598;2022-08-19T07:04:21;20.00;99.90
16513;DHT22;8369;48.030;11.598;2022-08-19T07:06:48;20.00;99.90
16513;DHT22;8369;48.030;11.598;2022-08-19T07:09:17;20.00;99.90
16513;DHT22;8369;48.030;11.598;2022-08-19T07:11:48;20.00;99.90
16513;DHT22;8369;48.030;11.598;2022-08-19T07:14:17;20.00;99.90
16513;DHT22;8369;48.030;11.598;2022-08-19T07:16:45;20.00;99.90
16513;DHT22;8369;48.030;11.598;2022-08-19T07:19:12;20.10;99.90
16513;DHT22;8369;48.030;11.598;2022-08-19T07:21:41;20.10;99.90
16513;DHT22;8369;48.030;11.598;2022-08-19T07:24:08;20.10;99.90
16513;DHT22;8369;48.030;11.598;2022-08-19T07:26:40;20.10;99.90
16513;DHT22;8369;48.030;11.598;2022-08-19T07:29:06;20.20;99.90
16513;DHT22;8369;48.030;11.598;2022-08-19T07:31:32;20.30;99.90
16513;DHT22;8369;48.030;11.598;2022-08-19T07:34:06;20.30;99.90
16513;DHT22;8369;48.030;11.598;2022-08-19T07:36:33;20.40;99.90
16513;DHT22;8369;48.030;11.598;2022-08-19T07:39:03;20.40;99.90
16513;DHT22;8369;48.030;11.598;2022-08-19T07:41:29;20.40;99.90
16513;DHT22;8369;48.030;11.598;2022-08-19T07:43:58;20.50;99.90
16513;DHT22;8369;48.030;11.598;2022-08-19T07:46:33;20.50;99.90
16513;DHT22;8369;48.030;11.598;2022-08-19T07:49:00;20.50;99.90
16513;DHT22;8369;48.030;11.598;2022-08-19T07:51:27;20.60;99.90
16513;DHT22;8369;48.030;11.598;2022-08-19T07:53:53;20.60;99.90
16513;DHT22;8369;48.030;11.598;2022-08-19T07:56:24;20.60;99.90
16513;DHT22;8369;48.030;11.598;2022-08-19T07:58:51;20.60;99.90
16513;DHT22;8369;48.030;11.598;2022-08-19T08:01:21;20.60;99.90
16513;DHT22;8369;48.030;11.598;2022-08-19T08:03:48;20.60;99.90
16513;DHT22;8369;48.030;11.598;2022-08-19T08:06:33;20.70;99.90
16513;DHT22;8369;48.030;11.598;2022-08-19T08:09:25;20.70;99.90
16513;DHT22;8369;48.030;11.598;2022-08-19T08:11:57;20.70;99.90
16513;DHT22;8369;48.030;11.598;2022-08-19T08:14:32;20.70;99.90
16513;DHT22;8369;48.030;11.598;2022-08-19T08:16:59;20.60;99.90
16513;DHT22;8369;48.030;11.598;2022-08-19T08:19:26;20.60;99.90
16513;DHT22;8369;48.030;11.598;2022-08-19T08:21:54;20.60;99.90
16513;DHT22;8369;48.030;11.598;2022-08-19T08:24:20;20.60;99.90
16513;DHT22;8369;48.030;11.598;2022-08-19T08:26:46;20.60;99.90
16513;DHT22;8369;48.030;11.598;2022-08-19T08:29:13;20.60;99.90
16513;DHT22;8369;48.030;11.598;2022-08-19T08:31:40;20.50;99.90
16513;DHT22;8369;48.030;11.598;2022-08-19T08:34:08;20.50;99.90
16513;DHT22;8369;48.030;11.598;2022-08-19T08:36:39;20.50;99.90
16513;DHT22;8369;48.030;11.598;2022-08-19T08:39:16;20.50;99.90
16513;DHT22;8369;48.030;11.598;2022-08-19T08:44:31;20.50;99.90
16513;DHT22;8369;48.030;11.598;2022-08-19T08:47:05;20.50;99.90
16513;DHT22;8369;48.030;11.598;2022-08-19T08:49:47;20.50;99.90
16513;DHT22;8369;48.030;11.598;2022-08-19T08:52:30;20.60;99.90
16513;DHT22;8369;48.030;11.598;2022-08-19T08:55:03;20.60;99.90
16513;DHT22;8369;48.030;11.598;2022-08-19T08:57:53;20.50;99.90
16513;DHT22;8369;48.030;11.598;2022-08-19T09:00:33;20.50;99.90
16513;DHT22;8369;48.030;11.598;2022-08-19T09:03:01;20.50;99.90
16513;DHT22;8369;48.030;11.598;2022-08-19T09:05:54;20.50;99.90
16513;DHT22;8369;48.030;11.598;2022-08-19T09:08:43;20.50;99.90
16513;DHT22;8369;48.030;11.598;2022-08-19T09:12:16;20.50;99.90
16513;DHT22;8369;48.030;11.598;2022-08-19T09:16:50;20.60;99.90
16513;DHT22;8369;48.030;11.598;2022-08-19T09:19:17;20.60;99.90
16513;DHT22;8369;48.030;11.598;2022-08-19T09:21:44;20.60;99.90
16513;DHT22;8369;48.030;11.598;2022-08-19T09:24:11;20.60;99.90
16513;DHT22;8369;48.030;11.598;2022-08-19T09:26:37;20.70;99.90
16513;DHT22;8369;48.030;11.598;2022-08-19T09:29:03;20.70;99.90
16513;DHT22;8369;48.030;11.598;2022-08-19T09:31:34;20.70;99.90
16513;DHT22;8369;48.030;11.598;2022-08-19T09:34:03;20.70;99.90
16513;DHT22;8369;48.030;11.598;2022-08-19T09:36:32;20.70;99.90
16513;DHT22;8369;48.030;11.598;2022-08-19T09:39:05;20.80;99.90
16513;DHT22;8369;48.030;11.598;2022-08-19T09:41:32;20.80;99.90
16513;DHT22;8369;48.030;11.598;2022-08-19T09:43:59;20.90;99.90
16513;DHT22;8369;48.030;11.598;2022-08-19T09:46:29;20.90;99.90
16513;DHT22;8369;48.030;11.598;2022-08-19T09:48:58;21.00;99.90
16513;DHT22;8369;48.030;11.598;2022-08-19T09:51:26;21.10;99.90
16513;DHT22;8369;48.030;11.598;2022-08-19T09:53:53;21.20;99.90
16513;DHT22;8369;48.030;11.598;2022-08-19T09:56:21;21.20;99.90
16513;DHT22;8369;48.030;11.598;2022-08-19T09:58:50;21.30;99.90
16513;DHT22;8369;48.030;11.598;2022-08-19T10:01:23;21.30;99.90
16513;DHT22;8369;48.030;11.598;2022-08-19T10:03:51;21.40;99.90
16513;DHT22;8369;48.030;11.598;2022-08-19T10:06:18;21.50;99.90
16513;DHT22;8369;48.030;11.598;2022-08-19T10:08:45;21.50;99.90
16513;DHT22;8369;48.030;11.598;2022-08-19T10:11:11;21.60;99.90
16513;DHT22;8369;48.030;11.598;2022-08-19T10:13:39;21.60;99.90
16513;DHT22;8369;48.030;11.598;2022-08-19T10:16:09;21.60;99.90
16513;DHT22;8369;48.030;11.598;2022-08-19T10:18:36;21.70;99.90
16513;DHT22;8369;48.030;11.598;2022-08-19T10:21:09;21.70;99.90
16513;DHT22;8369;48.030;11.598;2022-08-19T10:23:36;21.80;99.90
16513;DHT22;8369;48.030;11.598;2022-08-19T10:26:04;21.80;99.90
16513;DHT22;8369;48.030;11.598;2022-08-19T10:28:32;21.80;99.90
16513;DHT22;8369;48.030;11.598;2022-08-19T10:31:02;21.80;99.90
16513;DHT22;8369;48.030;11.598;2022-08-19T10:33:28;21.80;99.90
16513;DHT22;8369;48.030;11.598;2022-08-19T10:36:04;21.90;99.90
16513;DHT22;8369;48.030;11.598;2022-08-19T10:38:31;22.00;99.90
16513;DHT22;8369;48.030;11.598;2022-08-19T10:41:15;22.00;99.90
16513;DHT22;8369;48.030;11.598;2022-08-19T10:43:44;22.00;99.90
16513;DHT22;8369;48.030;11.598;2022-08-19T10:46:14;22.10;99.90
16513;DHT22;8369;48.030;11.598;2022-08-19T10:48:42;22.10;99.90
16513;DHT22;8369;48.030;11.598;2022-08-19T10:51:12;22.20;99.90
16513;DHT22;8369;48.030;11.598;2022-08-19T10:53:57;22.30;99.90
16513;DHT22;8369;48.030;11.598;2022-08-19T10:56:24;22.40;99.90
16513;DHT22;8369;48.030;11.598;2022-08-19T10:59:08;22.40;99.90
16513;DHT22;8369;48.030;11.598;2022-08-19T11:01:36;22.50;99.90
16513;DHT22;8369;48.030;11.598;2022-08-19T11:04:03;22.60;99.90
16513;DHT22;8369;48.030;11.598;2022-08-19T11:06:31;22.60;99.90
16513;DHT22;8369;48.030;11.598;2022-08-19T11:08:58;22.60;99.90
16513;DHT22;8369;48.030;11.598;2022-08-19T11:11:26;22.50;99.90
16513;DHT22;8369;48.030;11.598;2022-08-19T11:13:52;22.40;99.90
16513;DHT22;8369;48.030;11.598;2022-08-19T11:16:23;22.40;99.90
16513;DHT22;8369;48.030;11.598;2022-08-19T11:18:53;22.30;99.90
16513;DHT22;8369;48.030;11.598;2022-08-19T11:21:25;22.30;99.90
16513;DHT22;8369;48.030;11.598;2022-08-19T11:23:54;22.40;99.90
16513;DHT22;8369;48.030;11.598;2022-08-19T11:26:21;22.40;99.90
16513;DHT22;8369;48.030;11.598;2022-08-19T11:28:48;22.40;99.90
16513;DHT22;8369;48.030;11.598;2022-08-19T11:31:22;22.40;99.90
16513;DHT22;8369;48.030;11.598;2022-08-19T11:33:48;22.60;99.90
16513;DHT22;8369;48.030;11.598;2022-08-19T11:36:21;22.60;99.90
16513;DHT22;8369;48.030;11.598;2022-08-19T11:38:53;22.70;99.90
16513;DHT22;8369;48.030;11.598;2022-08-19T11:41:21;22.80;99.90
16513;DHT22;8369;48.030;11.598;2022-08-19T11:43:49;22.80;99.90
16513;DHT22;8369;48.030;11.598;2022-08-19T11:46:15;22.80;99.90
16513;DHT22;8369;48.030;11.598;2022-08-19T11:48:42;22.90;99.90
16513;DHT22;8369;48.030;11.598;2022-08-19T11:51:21;22.80;99.90
16513;DHT22;8369;48.030;11.598;2022-08-19T11:53:48;22.80;99.90
16513;DHT22;8369;48.030;11.598;2022-08-19T11:56:17;22.80;99.90
16513;DHT22;8369;48.030;11.598;2022-08-19T11:58:44;22.70;99.90
16513;DHT22;8369;48.030;11.598;2022-08-19T12:01:16;22.80;99.90
16513;DHT22;8369;48.030;11.598;2022-08-19T12:04:06;22.80;99.90
16513;DHT22;8369;48.030;11.598;2022-08-19T12:06:49;22.90;99.90
16513;DHT22;8369;48.030;11.598;2022-08-19T12:09:16;23.00;99.90
16513;DHT22;8369;48.030;11.598;2022-08-19T12:11:54;23.00;99.90
16513;DHT22;8369;48.030;11.598;2022-08-19T12:14:25;22.90;99.90
16513;DHT22;8369;48.030;11.598;2022-08-19T12:17:15;22.70;99.90
16513;DHT22;8369;48.030;11.598;2022-08-19T12:19:44;22.50;99.90
16513;DHT22;8369;48.030;11.598;2022-08-19T12:22:36;22.40;99.90
16513;DHT22;8369;48.030;11.598;2022-08-19T12:25:05;22.30;99.90
16513;DHT22;8369;48.030;11.598;2022-08-19T12:27:40;22.20;99.90
16513;DHT22;8369;48.030;11.598;2022-08-19T12:30:13;22.10;99.90
16513;DHT22;8369;48.030;11.598;2022-08-19T12:32:41;22.00;99.90
16513;DHT22;8369;48.030;11.598;2022-08-19T12:35:22;21.90;99.90
16513;DHT22;8369;48.030;11.598;2022-08-19T12:37:48;21.80;99.90
16513;DHT22;8369;48.030;11.598;2022-08-19T12:40:15;21.70;99.90
16513;DHT22;8369;48.030;11.598;2022-08-19T12:42:43;21.60;99.90
16513;DHT22;8369;48.030;11.598;2022-08-19T12:45:11;21.60;99.90
16513;DHT22;8369;48.030;11.598;2022-08-19T12:47:37;21.50;99.90
16513;DHT22;8369;48.030;11.598;2022-08-19T12:50:05;21.50;99.90
16513;DHT22;8369;48.030;11.598;2022-08-19T12:52:32;21.50;99.90
16513;DHT22;8369;48.030;11.598;2022-08-19T12:54:58;21.60;99.90
16513;DHT22;8369;48.030;11.598;2022-08-19T12:57:28;21.80;99.90
16513;DHT22;8369;48.030;11.598;2022-08-19T12:59:56;21.90;99.90
16513;DHT22;8369;48.030;11.598;2022-08-19T13:02:22;22.10;99.90
16513;DHT22;8369;48.030;11.598;2022-08-19T13:04:51;22.30;99.90
16513;DHT22;8369;48.030;11.598;2022-08-19T13:07:19;22.40;99.90
16513;DHT22;8369;48.030;11.598;2022-08-19T13:09:45;22.50;99.90
16513;DHT22;8369;48.030;11.598;2022-08-19T13:12:11;22.80;99.90
16513;DHT22;8369;48.030;11.598;2022-08-19T13:14:43;22.80;99.90
16513;DHT22;8369;48.030;11.598;2022-08-19T13:17:11;22.80;99.90
16513;DHT22;8369;48.030;11.598;2022-08-19T13:19:41;22.80;99.90
16513;DHT22;8369;48.030;11.598;2022-08-19T13:22:07;22.80;99.90
16513;DHT22;8369;48.030;11.598;2022-08-19T13:24:34;22.90;99.90
16513;DHT22;8369;48.030;11.598;2022-08-19T13:27:02;22.80;99.90
16513;DHT22;8369;48.030;11.598;2022-08-19T13:29:28;22.80;99.90
16513;DHT22;8369;48.030;11.598;2022-08-19T13:32:12;22.90;99.90
16513;DHT22;8369;48.030;11.598;2022-08-19T13:34:57;23.10;99.90
16513;DHT22;8369;48.030;11.598;2022-08-19T13:37:23;23.20;99.90
16513;DHT22;8369;48.030;11.598;2022-08-19T13:40:10;23.20;99.90
16513;DHT22;8369;48.030;11.598;2022-08-19T13:42:42;23.20;99.90
16513;DHT22;8369;48.030;11.598;2022-08-19T13:45:10;23.20;99.90
16513;DHT22;8369;48.030;11.598;2022-08-19T13:47:37;23.20;99.90
16513;DHT22;8369;48.030;11.598;2022-08-19T13:50:26;23.30;99.90
16513;DHT22;8369;48.030;11.598;2022-08-19T13:52:56;23.20;99.90
16513;DHT22;8369;48.030;11.598;2022-08-19T13:55:22;23.10;99.90
16513;DHT22;8369;48.030;11.598;2022-08-19T13:57:52;23.00;99.90
16513;DHT22;8369;48.030;11.598;2022-08-19T14:00:19;22.90;99.90
16513;DHT22;8369;48.030;11.598;2022-08-19T14:02:46;22.90;99.90
16513;DHT22;8369;48.030;11.598;2022-08-19T14:05:15;22.80;99.90
16513;DHT22;8369;48.030;11.598;2022-08-19T14:07:41;22.80;99.90
16513;DHT22;8369;48.030;11.598;2022-08-19T14:10:11;22.80;99.90
16513;DHT22;8369;48.030;11.598;2022-08-19T14:12:38;22.80;99.90
16513;DHT22;8369;48.030;11.598;2022-08-19T14:15:09;22.90;99.90
16513;DHT22;8369;48.030;11.598;2022-08-19T14:17:38;22.80;99.90
16513;DHT22;8369;48.030;11.598;2022-08-19T14:20:07;22.70;99.90
16513;DHT22;8369;48.030;11.598;2022-08-19T14:22:36;22.80;99.90
16513;DHT22;8369;48.030;11.598;2022-08-19T14:25:04;22.80;99.90
16513;DHT22;8369;48.030;11.598;2022-08-19T14:27:33;22.80;99.90
16513;DHT22;8369;48.030;11.598;2022-08-19T14:29:59;22.80;99.90
16513;DHT22;8369;48.030;11.598;2022-08-19T14:32:25;22.70;99.90
16513;DHT22;8369;48.030;11.598;2022-08-19T14:34:52;22.80;99.90
16513;DHT22;8369;48.030;11.598;2022-08-19T14:37:18;22.60;99.90
16513;DHT22;8369;48.030;11.598;2022-08-19T14:39:45;22.60;99.90
16513;DHT22;8369;48.030;11.598;2022-08-19T14:42:11;22.50;99.90
16513;DHT22;8369;48.030;11.598;2022-08-19T14:44:41;22.50;99.90
16513;DHT22;8369;48.030;11.598;2022-08-19T14:47:10;22.50;99.90
16513;DHT22;8369;48.030;11.598;2022-08-19T14:49:36;22.50;99.90
16513;DHT22;8369;48.030;11.598;2022-08-19T14:52:03;22.50;99.90
16513;DHT22;8369;48.030;11.598;2022-08-19T14:54:29;22.50;99.90
16513;DHT22;8369;48.030;11.598;2022-08-19T14:56:56;22.60;99.90
16513;DHT22;8369;48.030;11.598;2022-08-19T14:59:22;22.60;99.90
16513;DHT22;8369;48.030;11.598;2022-08-19T15:01:48;22.50;99.90
16513;DHT22;8369;48.030;11.598;2022-08-19T15:04:13;22.50;99.90
16513;DHT22;8369;48.030;11.598;2022-08-19T15:06:39;22.50;99.90
16513;DHT22;8369;48.030;11.598;2022-08-19T15:09:08;22.50;99.90
16513;DHT22;8369;48.030;11.598;2022-08-19T15:11:35;22.50;99.90
16513;DHT22;8369;48.030;11.598;2022-08-19T15:14:05;22.50;99.90
16513;DHT22;8369;48.030;11.598;2022-08-19T15:16:32;22.60;99.90
16513;DHT22;8369;48.030;11.598;2022-08-19T15:18:59;22.50;99.90
16513;DHT22;8369;48.030;11.598;2022-08-19T15:21:26;22.50;99.90
16513;DHT22;8369;48.030;11.598;2022-08-19T15:23:55;22.50;99.90
16513;DHT22;8369;48.030;11.598;2022-08-19T15:26:21;22.50;99.90
16513;DHT22;8369;48.030;11.598;2022-08-19T15:28:47;22.40;99.90
16513;DHT22;8369;48.030;11.598;2022-08-19T15:31:17;22.50;99.90
16513;DHT22;8369;48.030;11.598;2022-08-19T15:33:44;22.40;99.90
16513;DHT22;8369;48.030;11.598;2022-08-19T15:36:10;22.50;99.90
16513;DHT22;8369;48.030;11.598;2022-08-19T15:38:39;22.40;99.90
16513;DHT22;8369;48.030;11.598;2022-08-19T15:41:22;22.30;99.90
16513;DHT22;8369;48.030;11.598;2022-08-19T15:46:23;22.20;99.90
16513;DHT22;8369;48.030;11.598;2022-08-19T15:48:57;22.20;99.90
16513;DHT22;8369;48.030;11.598;2022-08-19T15:51:24;22.10;99.90
16513;DHT22;8369;48.030;11.598;2022-08-19T15:53:50;22.20;99.90
16513;DHT22;8369;48.030;11.598;2022-08-19T15:56:19;22.20;99.90